Latest Weather Observations for Tamworth Airport

IDN60801

Issued at 7:32 pm EDT Friday 20 October 2017 (issued every 30 minutes, with the page automatically refreshed every 10 minutes)

About weather observations | Map of weather stations | Latest weather observations for NSW | Other Formats
Station Details ID: 055325 Name: TAMWORTH AIRPORT AWS Lat: -31.07 Lon: 150.84 Height: 394.9 m
Data from the previous 72 hours. | See also: Recent months at Tamworth Airport
Date/Time
EDT
Temp
°C
App
Temp
°C
Dew
Point
°C
Rel
Hum
%
Delta-T
°C
Wind Press
QNH
hPa
Press
MSL
hPa
Rain since
9am
mm
Dir  Spd
km/h
Gust
km/h
Spd
kts
Gust
kts
20/07:30pm 17.1 17.6 15.1 88 1.2 ENE 6 7 3 4 1019.3 1018.3 11.4
20/07:29pm 17.1 17.6 15.1 88 1.2 ENE 6 7 3 4 1019.3 1018.3 11.4
20/07:00pm 17.0 18.6 15.0 88 1.2 CALM 0 0 0 0 1019.4 1018.4 11.4
20/06:57pm 17.0 18.6 15.0 88 1.2 CALM 0 0 0 0 1019.4 1018.4 11.4
20/06:30pm 17.0 18.2 15.0 88 1.2 NNW 2 7 1 4 1019.1 1018.1 11.4
20/06:28pm 16.9 18.1 14.9 88 1.2 NW 2 7 1 4 1019.1 1018.1 11.4
20/06:02pm 17.0 17.3 15.0 88 1.2 N 7 9 4 5 1019.2 1018.2 11.4
20/06:00pm 16.9 17.2 14.9 88 1.2 N 7 9 4 5 1019.2 1018.2 11.4
20/05:30pm 17.1 17.4 15.1 88 1.2 W 7 9 4 5 1019.4 1018.4 11.2
20/05:13pm 17.2 17.8 15.2 88 1.2 NW 6 9 3 5 1019.3 1018.3 11.0
20/05:00pm 17.3 17.3 15.1 87 1.3 NW 9 11 5 6 1019.5 1018.5 10.6
20/04:48pm 17.3 17.3 15.1 87 1.3 NNW 9 13 5 7 1019.4 1018.4 10.4
20/04:45pm 17.2 17.0 14.8 86 1.4 NNW 9 13 5 7 1019.5 1018.5 10.4
20/04:41pm 17.4 17.0 15.2 87 1.3 NNW 11 13 6 7 1019.5 1018.5 10.4
20/04:30pm 17.3 16.9 15.1 87 1.3 NNW 11 13 6 7 1019.4 1018.4 10.4
20/04:27pm 17.3 16.9 15.1 87 1.3 NNW 11 13 6 7 1019.3 1018.3 10.2
20/04:23pm 17.3 16.9 15.1 87 1.3 NNW 11 13 6 7 1019.4 1018.4 10.2
20/04:20pm 17.4 17.4 15.2 87 1.3 NNW 9 13 5 7 1019.4 1018.4 10.2
20/04:07pm 17.3 16.5 15.1 87 1.3 NW 13 15 7 8 1019.5 1018.5 10.0
20/04:00pm 17.3 16.5 15.1 87 1.3 NW 13 15 7 8 1019.5 1018.5 10.0
20/03:36pm 17.4 16.4 14.7 84 1.6 NNW 13 17 7 9 1019.5 1018.5 9.6
20/03:30pm 17.4 16.1 14.7 84 1.6 N 15 19 8 10 1019.2 1018.2 9.4
20/03:10pm 17.6 17.2 15.2 86 1.4 NNW 11 13 6 7 1019.8 1018.8 9.2
20/03:00pm 17.6 16.8 15.2 86 1.4 NNW 13 15 7 8 1019.9 1018.9 9.2
20/02:30pm 17.3 16.0 14.9 86 1.4 N 15 20 8 11 1020.4 1019.4 8.4
20/02:06pm 17.3 15.1 14.4 83 1.7 N 19 24 10 13 1020.5 1019.5 8.2
20/02:00pm 17.5 15.5 15.0 85 1.5 N 19 24 10 13 1020.4 1019.4 8.2
20/01:30pm 17.1 16.1 14.6 85 1.5 NNE 13 19 7 10 1021.0 1020.0 7.8
20/01:26pm 17.2 17.4 14.8 86 1.4 NNE 7 15 4 8 1021.0 1020.0 7.8
20/01:00pm 17.3 17.6 14.6 84 1.6 NNW 6 7 3 4 1021.4 1020.4 6.6
20/12:43pm 17.4 18.6 15.0 86 1.4 NNW 2 7 1 4 1021.5 1020.5 5.8
20/12:30pm 17.3 17.1 14.8 85 1.5 WNW 9 13 5 7 1021.6 1020.6 5.2
20/12:00pm 17.3 16.2 14.2 82 1.8 WNW 13 17 7 9 1022.0 1021.0 1.6
20/11:43am 18.0 15.7 13.1 73 2.8 NNW 17 22 9 12 1022.0 1021.0 0.2
20/11:30am 19.4 17.1 13.1 67 3.6 NNW 17 24 9 13 1021.9 1020.9 0.0
20/11:00am 20.6 17.4 11.8 57 5.0 N 20 24 11 13 1021.9 1020.9 0.0
20/10:30am 20.4 17.3 11.6 57 5.0 N 19 22 10 12 1022.0 1021.0 0.0
20/10:00am 19.6 16.9 11.6 60 4.5 N 17 22 9 12 1022.3 1021.3 0.0
20/09:30am 19.4 16.7 11.7 61 4.3 N 17 26 9 14 1022.6 1021.6 0.0
20/09:00am 19.4 16.2 11.4 60 4.5 N 19 26 10 14 1022.6 1021.6 0.0
20/08:30am 19.4 14.8 11.2 59 4.6 N 26 35 14 19 1022.4 1021.4 0.0
20/08:00am 19.6 16.5 11.6 60 4.5 N 19 28 10 15 1022.3 1021.3 0.0
20/07:30am 18.8 16.7 12.3 66 3.7 NNE 15 20 8 11 1022.0 1021.0 0.0
20/07:00am 17.6 17.2 12.3 71 3.0 NNE 6 9 3 5 1021.8 1020.8 0.0
20/06:30am 17.1 17.5 12.4 74 2.6 ENE 2 7 1 4 1021.4 1020.4 0.0
20/06:00am 17.6 17.5 12.1 70 3.1 N 4 9 2 5 1021.2 1020.2 0.0
20/05:30am 17.0 16.7 11.5 70 3.0 SE 4 9 2 5 1020.8 1019.8 0.0
20/05:00am 17.8 16.8 11.1 65 3.7 E 7 9 4 5 1020.4 1019.4 0.0
20/04:30am 19.3 16.5 11.3 60 4.5 N 17 20 9 11 1020.4 1019.4 0.0
20/04:00am 19.6 16.8 11.4 59 4.6 N 17 20 9 11 1020.5 1019.5 0.0
20/03:30am 19.8 16.6 11.8 60 4.5 N 20 30 11 16 1020.6 1019.6 0.0
20/03:00am 18.2 16.7 12.0 67 3.5 NNW 11 15 6 8 1020.9 1019.9 0.0
20/02:30am 15.4 14.6 11.6 78 2.1 W 7 9 4 5 1021.2 1020.2 0.0
20/02:00am 14.9 14.3 10.5 75 2.4 S 4 6 2 3 1021.2 1020.2 0.0
20/01:30am 15.8 14.4 11.0 73 2.6 ESE 9 11 5 6 1021.2 1020.2 0.0
20/01:00am 16.8 15.4 10.9 68 3.2 NE 9 11 5 6 1021.5 1020.5 0.0
20/12:30am 17.9 16.9 11.0 64 3.8 WNW 7 9 4 5 1021.7 1020.7 0.0
20/12:00am 17.3 16.3 10.4 64 3.7 WNW 6 7 3 4 1021.9 1020.9 0.0
 
Date/Time
EDT
Temp
°C
App
Temp
°C
Dew
Point
°C
Rel
Hum
%
Delta-T
°C
Wind Press
QNH
hPa
Press
MSL
hPa
Rain since
9am
mm
Dir  Spd
km/h
Gust
km/h
Spd
kts
Gust
kts
19/11:30pm 18.1 16.8 11.2 64 3.8 NNW 9 11 5 6 1022.0 1021.0 0.0
19/11:00pm 16.9 15.6 10.1 64 3.7 WNW 7 11 4 6 1022.1 1021.1 0.0
19/10:30pm 19.7 18.3 10.9 57 4.9 N 9 11 5 6 1022.1 1021.1 0.0
19/10:00pm 19.8 18.8 11.0 57 4.9 N 7 7 4 4 1022.2 1021.2 0.0
19/09:30pm 20.2 19.2 10.9 55 5.2 NW 7 7 4 4 1022.2 1021.2 0.0
19/09:00pm 19.2 17.7 10.5 57 4.8 WNW 9 9 5 5 1022.1 1021.1 0.0
19/08:30pm 21.1 21.2 10.0 49 6.1 CALM 0 7 0 4 1021.7 1020.7 0.0
19/08:00pm 22.2 22.2 9.7 45 6.9 CALM 0 0 0 0 1021.4 1020.4 0.0
19/07:30pm 22.9 22.9 9.7 43 7.3 CALM 0 2 0 1 1021.1 1020.1 0.0
19/07:00pm 24.8 23.4 9.5 38 8.5 NW 7 9 4 5 1020.9 1019.9 0.0
19/06:30pm 26.9 25.2 9.7 34 9.7 NW 9 13 5 7 1020.9 1019.9 0.0
19/06:00pm 27.6 25.6 8.5 30 10.6 NW 9 13 5 7 1020.6 1019.6 0.0
19/05:30pm 27.9 25.1 8.7 30 10.7 NW 13 17 7 9 1020.8 1019.8 0.0
19/05:00pm 27.6 24.6 7.5 28 10.9 NW 13 20 7 11 1021.0 1020.0 0.0
19/04:30pm 27.3 24.8 8.2 30 10.5 NNW 11 20 6 11 1021.1 1020.1 0.0
19/04:00pm 27.6 25.2 8.5 30 10.6 WNW 11 19 6 10 1021.3 1020.3 0.0
19/03:30pm 27.0 24.3 7.5 29 10.6 NNW 11 20 6 11 1021.7 1020.7 0.0
19/03:00pm 27.1 24.4 7.5 29 10.6 WNW 11 19 6 10 1022.1 1021.1 0.0
19/02:30pm 27.1 24.9 9.5 33 9.9 WNW 11 17 6 9 1022.7 1021.7 0.0
19/02:00pm 26.8 24.7 8.3 31 10.1 NW 9 15 5 8 1023.2 1022.3 0.0
19/01:30pm 26.1 23.9 9.5 35 9.3 NW 11 20 6 11 1023.8 1022.8 0.0
19/01:00pm 25.5 22.8 8.9 35 9.1 NW 13 20 7 11 1024.3 1023.3 0.0
19/12:30pm 25.2 24.0 9.5 37 8.7 W 6 15 3 8 1024.7 1023.7 0.0
19/12:00pm 24.4 22.2 8.0 35 8.8 W 9 15 5 8 1025.2 1024.3 0.0
19/11:30am 23.6 20.9 8.8 39 8.1 WNW 13 19 7 10 1025.6 1024.7 0.0
19/11:00am 22.9 20.9 8.6 40 7.7 NNE 9 17 5 9 1026.0 1025.1 0.0
19/10:30am 21.9 19.8 8.4 42 7.2 NW 9 15 5 8 1026.5 1025.5 0.0
19/10:00am 21.1 19.9 9.7 48 6.2 NW 6 9 3 5 1026.7 1025.7 0.0
19/09:30am 20.5 19.6 9.1 48 6.2 WSW 4 9 2 5 1026.9 1025.9 0.0
19/09:00am 19.6 18.1 8.6 49 5.8 N 6 9 3 5 1026.9 1025.9 0.0
19/08:30am 19.4 18.1 9.9 54 5.2 NNE 7 11 4 6 1026.7 1025.7 0.0
19/08:00am 19.2 17.7 10.5 57 4.8 E 9 13 5 7 1026.6 1025.6 0.0
19/07:30am 17.4 15.9 10.5 64 3.8 SE 9 11 5 6 1026.4 1025.4 0.0
19/07:00am 14.6 13.4 10.2 75 2.3 SE 7 11 4 6 1026.0 1025.1 0.0
19/06:30am 12.6 10.0 9.2 80 1.8 SE 13 15 7 8 1025.5 1024.6 0.0
19/06:00am 12.3 9.9 8.6 78 1.9 SE 11 13 6 7 1025.2 1024.3 0.0
19/05:30am 11.5 9.2 7.4 76 2.0 SSE 9 11 5 6 1025.0 1024.0 0.0
19/05:00am 12.1 11.0 8.4 78 1.9 SE 4 9 2 5 1024.9 1023.9 0.0
19/04:30am 11.8 10.8 7.3 74 2.2 WSW 2 7 1 4 1025.0 1024.0 0.0
19/04:00am 13.6 11.9 8.2 70 2.7 SE 7 9 4 5 1025.1 1024.2 0.0
19/03:30am 13.7 13.3 8.3 70 2.8 CALM 0 0 0 0 1025.1 1024.2 0.0
19/03:00am 14.8 12.7 8.3 65 3.3 ESE 9 11 5 6 1025.3 1024.4 0.0
19/02:30am 16.1 13.7 8.6 61 3.9 E 11 17 6 9 1025.5 1024.6 0.0
19/02:00am 16.8 14.1 8.8 59 4.2 E 13 22 7 12 1025.6 1024.7 0.0
19/01:30am 17.4 14.3 8.8 57 4.5 E 15 20 8 11 1026.0 1025.1 0.0
19/01:00am 17.6 14.2 9.0 57 4.5 E 17 20 9 11 1026.4 1025.4 0.0
19/12:30am 18.0 14.5 8.8 55 4.9 E 17 24 9 13 1026.6 1025.6 0.0
19/12:00am 18.2 14.4 9.0 55 4.9 E 19 24 10 13 1026.6 1025.6 0.0
 
Date/Time
EDT
Temp
°C
App
Temp
°C
Dew
Point
°C
Rel
Hum
%
Delta-T
°C
Wind Press
QNH
hPa
Press
MSL
hPa
Rain since
9am
mm
Dir  Spd
km/h
Gust
km/h
Spd
kts
Gust
kts
18/11:30pm 18.5 14.6 8.7 53 5.2 E 19 30 10 16 1026.7 1025.7 0.0
18/11:00pm 18.9 14.8 8.8 52 5.3 E 20 32 11 17 1026.7 1025.7 0.0
18/10:30pm 19.2 14.3 8.5 50 5.7 ENE 24 30 13 16 1026.4 1025.4 0.0
18/10:00pm 19.3 15.5 8.9 51 5.5 E 19 26 10 14 1026.0 1025.1 0.0
18/09:30pm 19.5 15.1 9.1 51 5.6 E 22 32 12 17 1025.7 1024.8 0.0
18/09:00pm 20.0 15.2 8.7 48 6.0 E 24 37 13 20 1025.2 1024.3 0.0
18/08:30pm 20.5 15.7 8.8 47 6.3 E 24 33 13 18 1024.9 1023.9 0.0
18/08:00pm 20.9 15.7 8.9 46 6.4 E 26 33 14 18 1024.4 1023.4 0.0
18/07:30pm 21.4 16.2 9.0 45 6.7 E 26 32 14 17 1024.0 1023.0 0.0
18/07:00pm 22.2 16.7 9.0 43 7.1 E 28 35 15 19 1023.7 1022.7 0.0
18/06:30pm 23.3 17.8 9.3 41 7.7 E 28 35 15 19 1023.3 1022.4 0.0
18/06:00pm 24.2 18.3 9.0 38 8.3 E 30 37 16 20 1023.0 1022.1 0.0
18/05:30pm 25.1 19.7 9.4 37 8.7 E 28 39 15 21 1022.8 1021.8 0.0
18/05:00pm 25.7 20.6 9.1 35 9.2 E 26 33 14 18 1022.7 1021.7 0.0
18/04:30pm 25.8 20.9 8.3 33 9.6 E 24 30 13 16 1022.7 1021.7 0.0
18/04:00pm 26.2 22.1 8.7 33 9.6 ENE 20 28 11 15 1022.8 1021.8 0.0
18/03:30pm 26.1 21.1 8.1 32 9.8 ENE 24 33 13 18 1023.2 1022.3 0.0
18/03:00pm 25.9 20.1 8.0 32 9.7 ENE 28 35 15 19 1023.3 1022.4 0.0
18/02:30pm 26.4 21.2 8.8 33 9.8 NE 26 35 14 19 1023.8 1022.8 0.0
18/02:00pm 25.9 20.6 9.7 36 9.1 ENE 28 37 15 20 1024.1 1023.1 0.0
18/01:30pm 25.3 19.6 8.3 34 9.3 E 28 39 15 21 1024.4 1023.4 0.0
18/01:00pm 25.6 20.0 8.6 34 9.3 ENE 28 35 15 19 1024.9 1023.9 0.0
18/12:30pm 24.0 17.9 6.7 33 9.1 ENE 28 37 15 20 1025.3 1024.4 0.0
18/12:00pm 24.0 19.1 9.9 41 7.8 E 26 35 14 19 1025.5 1024.6 0.0
18/11:30am 23.7 17.9 9.3 40 7.9 E 30 39 16 21 1025.7 1024.8 0.0
18/11:00am 23.7 18.9 10.4 43 7.4 E 26 39 14 21 1026.2 1025.2 0.0
18/10:30am 23.3 18.4 10.0 43 7.4 E 26 32 14 17 1026.6 1025.6 0.0
18/10:00am 22.6 18.4 9.7 44 7.1 ENE 22 33 12 18 1026.8 1025.8 0.0
18/09:30am 21.6 17.7 9.5 46 6.6 E 20 32 11 17 1026.9 1025.9 0.0
18/09:00am 20.7 15.5 10.2 51 5.8 E 28 35 15 19 1026.8 1025.8 0.0
18/08:30am 19.4 15.5 9.6 53 5.3 E 20 30 11 16 1026.5 1025.5 0.0
18/08:00am 19.2 16.1 10.2 56 4.9 ESE 17 26 9 14 1026.5 1025.5 0.0
18/07:30am 17.2 14.9 10.3 64 3.7 SE 13 20 7 11 1026.2 1025.2 0.0
18/07:00am 14.0 12.2 9.4 74 2.4 SE 9 13 5 7 1025.8 1024.9 0.0
18/06:30am 12.4 10.2 7.9 74 2.3 SSE 9 15 5 8 1025.5 1024.6 0.0
18/06:00am 12.7 10.5 7.8 72 2.4 ESE 9 13 5 7 1025.2 1024.3 0.0
18/05:30am 14.2 11.5 8.8 70 2.8 ESE 13 17 7 9 1024.9 1023.9 0.0
18/05:00am 13.9 10.2 8.1 68 2.9 SE 17 19 9 10 1024.7 1023.7 0.0
18/04:30am 14.1 11.0 7.4 64 3.4 SE 13 20 7 11 1024.7 1023.7 0.0
18/04:00am 15.4 10.6 7.4 59 4.0 ESE 22 33 12 18 1024.5 1023.5 0.0
18/03:30am 15.5 11.2 7.8 60 3.9 SE 20 33 11 18 1024.4 1023.4 0.0
18/03:00am 15.6 11.6 8.1 61 3.8 ESE 19 26 10 14 1024.7 1023.7 0.0
18/02:30am 15.3 11.6 7.8 61 3.8 ESE 17 22 9 12 1025.1 1024.2 0.0
18/02:00am 16.3 12.3 8.3 59 4.1 ESE 19 30 10 16 1025.5 1024.6 0.0
18/01:30am 16.4 12.2 8.1 58 4.3 E 20 30 11 16 1026.0 1025.1 0.0
18/01:00am 16.6 12.7 8.6 59 4.2 E 19 30 10 16 1026.5 1025.5 0.0
18/12:30am 16.0 12.9 8.7 62 3.8 E 15 20 8 11 1026.7 1025.7 0.0
18/12:00am 16.6 13.4 8.6 59 4.2 ESE 15 20 8 11 1026.6 1025.6 0.0
 
Date/Time
EDT
Temp
°C
App
Temp
°C
Dew
Point
°C
Rel
Hum
%
Delta-T
°C
Wind Press
QNH
hPa
Press
MSL
hPa
Rain since
9am
mm
Dir  Spd
km/h
Gust
km/h
Spd
kts
Gust
kts
17/11:30pm 16.8 12.8 8.2 57 4.5 E 19 32 10 17 1026.4 1025.4 0.0
17/11:00pm 17.0 13.3 7.9 55 4.7 E 17 22 9 12 1026.0 1025.1 0.0
17/10:30pm 16.9 13.2 7.8 55 4.7 E 17 24 9 13 1026.0 1025.1 0.0
17/10:00pm 17.4 13.1 7.7 53 5.0 ESE 20 28 11 15 1025.7 1024.8 0.0
17/09:30pm 18.1 12.6 7.5 50 5.5 E 26 37 14 20 1025.3 1024.4 0.0
17/09:00pm 18.3 13.3 8.0 51 5.3 E 24 37 13 20 1025.4 1024.5 0.0
17/08:30pm 19.1 12.7 8.4 50 5.7 E 32 46 17 25 1025.0 1024.0 0.0
17/08:29pm 19.1 13.0 8.4 50 5.7 E 30 46 16 25 1024.9 1023.9 0.0
17/08:00pm 19.4 15.3 8.7 50 5.7 E 20 28 11 15 1024.6 1023.6 0.0

Other Formats:

Comma delimited format used in spreadsheet applications
http://www.bom.gov.au/fwo/IDN60801/IDN60801.95762.axf

JavaScript Object Notation format (JSON) in row-major order
http://www.bom.gov.au/fwo/IDN60801/IDN60801.95762.json